Latest Coastal Weather Observations for Mornington Island Airport

IDQ60701

Issued at 3:42 am EST Monday 20 November 2017 (issued every 10 minutes, with the page automatically refreshed every 10 minutes)

About coastal observations | Map of coastal stations | Coastal observations for QLD | Marine services | Other Formats
Station Details ID: 029182 Name: MORNINGTON ISLAND AIRPORT Lat: -16.66 Lon: 139.17 Height: 9.52 m
Data from the previous 72 hours. | See also: Recent months at Mornington Island Airport
Date/Time
EST
Temp
°C
Wind Pressure Rain since
9am
mm
Weather Cloud Vis
km
Sea
Height
m
Swell
Dir  Spd
kts
Gust
kts
hPa Trend Height
m
Period
s
Dir
20/03:30am 28.7 NW 13 17 1007.2 - 0.0 - - - - - - -
20/03:00am 28.7 NW 14 17 1007.2 - 0.0 - - - - - - -
20/02:30am 28.7 NW 14 17 1007.5 - 0.0 - - - - - - -
20/02:00am 28.7 NNW 13 16 1007.9 - 0.0 - - - - - - -
20/01:30am 28.7 NNW 12 16 1008.2 - 0.0 - - - - - - -
20/01:00am 28.6 NNW 11 16 1008.1 - 0.0 - - - - - - -
20/12:30am 28.7 NNW 11 15 1008.3 - 0.0 - - - - - - -
20/12:00am 28.8 NNW 10 14 1008.5 - 0.0 - - - - - - -
 
Date/Time
EST
Temp
°C
Wind Pressure Rain since
9am
mm
Weather Cloud Vis
km
Sea
Height
m
Swell
Dir  Spd
kts
Gust
kts
hPa Trend Height
m
Period
s
Dir
19/11:30pm 28.9 NNW 11 15 1008.5 - 0.0 - - - - - - -
19/11:00pm 28.9 NNW 12 15 1008.4 - 0.0 - - - - - - -
19/10:30pm 29.0 NNW 12 16 1008.4 - 0.0 - - - - - - -
19/10:00pm 29.1 NNW 11 16 1008.4 - 0.0 - - - - - - -
19/09:30pm 29.1 NNW 11 14 1008.0 - 0.0 - - - - - - -
19/09:00pm 29.2 NNW 11 15 1007.8 - 0.0 - - - - - - -
19/08:30pm 29.3 NNW 9 14 1007.7 - 0.0 - - - - - - -
19/08:00pm 29.3 NNW 10 13 1007.5 - 0.0 - - - - - - -
19/07:30pm 29.5 NNW 9 13 1007.3 - 0.0 - - - - - - -
19/07:00pm 29.7 N 10 11 1007.1 - 0.0 - - - - - - -
19/06:30pm 30.1 NNW 10 13 1007.0 - 0.0 - - - - - - -
19/06:00pm 30.7 N 9 13 1007.0 - 0.0 - - - - - - -
19/05:30pm 31.2 N 12 15 1006.8 - 0.0 - - - - - - -
19/05:00pm 31.0 NNW 12 17 1007.0 - 0.0 - - - - - - -
19/04:30pm 31.3 NNW 12 16 1007.1 - 0.0 - - - - - - -
19/04:00pm 31.8 NNW 10 16 1007.4 - 0.0 - - - - - - -
19/03:30pm 31.3 N 9 14 1007.9 - 0.0 - - - - - - -
19/03:00pm 32.2 NW 11 15 1008.1 - 0.0 - - - - - - -
19/02:30pm 32.6 NW 11 13 1008.4 - 0.0 - - - - - - -
19/02:00pm 31.4 NW 11 16 1008.6 - 0.0 - - - - - - -
19/01:30pm 32.2 NW 13 16 1008.8 - 0.0 - - - - - - -
19/01:00pm 31.7 NW 12 15 1009.1 - 0.0 - - - - - - -
19/12:30pm 31.5 NW 11 15 1009.6 - 0.0 - - - - - - -
19/12:00pm 31.0 WNW 10 12 1009.8 - 0.0 - - - - - - -
19/11:30am 30.6 WNW 9 11 1010.1 - 0.0 - - - - - - -
19/11:00am 30.2 W 8 9 1010.4 - 0.0 - - - - - - -
19/10:30am 29.9 WSW 8 10 1010.5 - 0.0 - - - - - - -
19/10:00am 29.9 WSW 6 9 1010.5 - 0.0 - - - - - - -
19/09:30am 29.8 WSW 7 9 1010.6 - 0.0 - - - - - - -
19/09:00am 29.3 WSW 5 6 1010.6 - 0.0 - - - - - - -
19/08:30am 28.8 WSW 5 6 1010.5 - 0.0 - - - - - - -
19/08:00am 28.7 WSW 6 9 1010.1 - 0.0 - - - - - - -
19/07:30am 28.4 WSW 6 9 1009.7 - 0.0 - - - - - - -
19/07:00am 28.4 W 8 11 1009.0 - 0.0 - - - - - - -
19/06:30am 28.3 W 10 13 1008.3 - 0.0 - - - - - - -
19/06:00am 28.2 W 9 12 1008.1 - 0.0 - - - - - - -
19/05:30am 28.1 WNW 11 15 1007.9 - 0.0 - - - - - - -
19/05:00am 28.1 WNW 11 14 1007.8 - 0.0 - - - - - - -
19/04:30am 27.9 WNW 12 14 1007.5 - 0.0 - - - - - - -
19/04:00am 27.9 WNW 12 15 1007.0 - 0.0 - - - - - - -
19/03:30am 28.1 WNW 11 13 1007.1 - 0.0 - - - - - - -
19/03:00am 27.9 NW 11 13 1007.1 - 0.0 - - - - - - -
19/02:30am 27.9 NW 10 13 1007.1 - 0.0 - - - - - - -
19/02:00am 27.8 NNW 10 13 1007.0 - 0.0 - - - - - - -
19/01:30am 28.0 NW 11 14 1007.3 - 0.0 - - - - - - -
19/01:00am 28.1 NW 11 14 1007.7 - 0.0 - - - - - - -
19/12:30am 28.2 NW 12 14 1008.2 - 0.0 - - - - - - -
19/12:00am 28.3 NW 12 13 1008.4 - 0.0 - - - - - - -
 
Date/Time
EST
Temp
°C
Wind Pressure Rain since
9am
mm
Weather Cloud Vis
km
Sea
Height
m
Swell
Dir  Spd
kts
Gust
kts
hPa Trend Height
m
Period
s
Dir
18/11:30pm 28.3 NW 10 11 1008.6 - 0.0 - - - - - - -
18/11:00pm 28.5 NW 9 11 1008.6 - 0.0 - - - - - - -
18/10:30pm 28.5 NNW 9 11 1008.6 - 0.0 - - - - - - -
18/10:00pm 28.6 NW 9 11 1008.4 - 0.0 - - - - - - -
18/09:30pm 28.5 NNW 8 10 1008.3 - 0.0 - - - - - - -
18/09:00pm 28.3 N 5 7 1008.1 - 0.0 - - - - - - -
18/08:30pm 28.4 N 5 7 1008.1 - 0.0 - - - - - - -
18/08:00pm 28.5 N 6 8 1007.6 - 0.0 - - - - - - -
18/07:30pm 28.9 N 7 10 1007.5 - 0.0 - - - - - - -
18/07:00pm 29.5 N 7 9 1007.3 - 0.0 - - - - - - -
18/06:30pm 30.1 N 7 9 1007.0 - 0.0 - - - - - - -
18/06:00pm 30.7 NNW 9 11 1006.8 - 0.0 - - - - - - -
18/05:30pm 31.1 N 10 13 1007.0 - 0.0 - - - - - - -
18/05:00pm 32.3 NNW 11 14 1007.0 - 0.0 - - - - - - -
18/04:30pm 31.9 NW 11 13 1007.1 - 0.0 - - - - - - -
18/04:00pm 33.1 NNE 6 12 1007.1 - 0.0 - - - - - - -
18/03:30pm 33.7 ESE 8 12 1007.6 - 0.0 - - - - - - -
18/03:00pm 33.0 ESE 9 14 1007.8 - 0.0 - - - - - - -
18/02:30pm 32.6 SSE 9 13 1008.5 - 0.0 - - - - - - -
18/02:00pm 32.8 SE 8 12 1009.0 - 0.0 - - - - - - -
18/01:30pm 32.5 SE 11 15 1009.5 - 0.0 - - - - - - -
18/01:00pm 32.4 SE 10 13 1009.9 - 0.0 - - - - - - -
18/12:30pm 32.3 SE 12 17 1010.2 - 0.0 - - - - - - -
18/12:00pm 32.1 SE 11 16 1010.5 - 0.0 - - - - - - -
18/11:30am 32.1 SE 12 17 1010.8 - 0.0 - - - - - - -
18/11:00am 31.4 ESE 10 16 1010.8 - 0.0 - - - - - - -
18/10:30am 30.3 ESE 11 16 1011.1 - 0.0 - - - - - - -
18/10:00am 30.7 SSE 10 15 1011.1 - 0.0 - - - - - - -
18/09:30am 30.0 SSE 10 17 1011.2 - 0.0 - - - - - - -
18/09:00am 29.5 SSE 8 12 1011.2 - 15.4 - - - - - - -
18/08:30am 29.3 SE 7 11 1010.9 - 15.4 - - - - - - -
18/08:00am 28.9 SSE 6 11 1010.8 - 15.4 - - - - - - -
18/07:30am 28.4 S 5 7 1010.4 - 15.4 - - - - - - -
18/07:00am 27.4 S 5 8 1009.8 - 15.4 - - - - - - -
18/06:30am 27.1 S 3 5 1009.3 - 15.4 - - - - - - -
18/06:00am 27.3 SSW 4 7 1008.7 - 15.4 - - - - - - -
18/05:30am 27.4 SW 5 7 1008.3 - 15.4 - - - - - - -
18/05:00am 27.8 WSW 6 10 1007.9 - 15.4 - - - - - - -
18/04:30am 27.3 SW 4 6 1007.7 - 15.4 - - - - - - -
18/04:00am 27.5 SW 5 7 1007.5 - 15.4 - - - - - - -
18/03:30am 27.3 WSW 4 6 1007.5 - 15.4 - - - - - - -
18/03:00am 27.1 W 5 6 1007.9 - 15.4 - - - - - - -
18/02:30am 26.4 WNW 4 5 1007.9 - 15.4 - - - - - - -
18/02:00am 26.0 CALM 0 0 1008.2 - 15.4 - - - - - - -
18/01:30am 26.2 CALM 0 0 1008.5 - 15.4 - - - - - - -
18/01:00am 26.3 CALM 0 0 1009.0 - 15.4 - - - - - - -
18/12:30am 26.4 CALM 0 0 1009.6 - 15.4 - - - - - - -
18/12:00am 26.5 CALM 0 0 1009.9 - 15.4 - - - - - - -
 
Date/Time
EST
Temp
°C
Wind Pressure Rain since
9am
mm
Weather Cloud Vis
km
Sea
Height
m
Swell
Dir  Spd
kts
Gust
kts
hPa Trend Height
m
Period
s
Dir
17/11:30pm 26.9 CALM 0 0 1010.3 - 15.4 - - - - - - -
17/11:00pm 27.5 ESE 5 7 1010.4 - 15.4 - - - - - - -
17/10:30pm 27.5 SE 5 8 1010.4 - 15.4 - - - - - - -
17/10:00pm 27.6 SE 6 7 1010.4 - 15.4 - - - - - - -
17/09:30pm 27.8 NE 3 5 1009.8 - 15.4 - - - - - - -
17/09:00pm 28.2 NNW 4 6 1009.8 - 15.4 - - - - - - -
17/08:30pm 28.2 N 7 9 1009.2 - 15.4 - - - - - - -
17/08:00pm 28.1 N 5 8 1008.8 - 15.4 - - - - - - -
17/07:30pm 28.2 N 7 9 1008.5 - 15.4 - - - - - - -
17/07:00pm 28.3 N 8 11 1008.3 - 15.4 - - - - - - -
17/06:30pm 28.5 N 9 11 1008.1 - 15.4 - - - - - - -
17/06:00pm 28.7 N 9 12 1007.8 - 15.4 - - - - - - -
17/05:30pm 29.0 N 9 13 1007.7 - 15.4 - - - - - - -
17/05:00pm 28.7 N 10 14 1007.7 - 15.4 - - - - - - -
17/04:30pm 29.4 N 11 13 1007.9 - 15.4 - - - - - - -
17/04:00pm 29.6 N 11 15 1008.2 - 15.4 - - - - - - -
17/03:30pm 29.2 N 10 14 1008.4 - 15.4 - - - - - - -
17/03:00pm 29.5 N 11 15 1008.8 - 15.4 - - - - - - -
17/02:30pm 29.0 NNE 11 14 1008.9 - 15.4 - - - - - - -
17/02:00pm 29.3 NE 9 14 1009.2 - 15.4 - - - - - - -
17/01:30pm 28.6 NE 8 13 1009.2 - 15.4 - - - - - - -
17/01:00pm 26.3 NE 8 13 1009.9 - 15.4 - - - - - - -
17/12:30pm 26.0 NNE 9 14 1010.6 - 15.4 - - - - - - -
17/12:00pm 25.9 NE 10 15 1011.0 - 15.4 Recent precip. - - - - - -
17/11:30am 24.9 NE 10 14 1011.6 - 14.8 - - - - - - -
17/11:00am 25.6 NE 7 11 1011.4 - 8.2 - - - - - - -
17/10:30am 27.7 S 7 11 1011.0 - 8.2 - - - - - - -
17/10:00am 28.0 SSE 7 11 1011.5 - 4.6 - - - - - - -
17/09:30am 30.8 ENE 7 10 1011.3 - 0.0 - - - - - - -
17/09:00am 30.5 E 7 11 1011.2 - 0.0 - - - - - - -
17/08:30am 29.4 E 5 7 1011.0 - 0.0 - - - - - - -
17/08:00am 29.0 E 5 7 1010.9 - 0.0 - - - - - - -
17/07:30am 28.4 ESE 9 11 1010.5 - 0.0 - - - - - - -
17/07:00am 27.3 ESE 5 7 1009.8 - 0.0 - - - - - - -
17/06:30am 26.1 NE 3 4 1009.1 - 0.0 - - - - - - -
17/06:00am 26.0 E 2 4 1008.2 - 0.0 - - - - - - -
17/05:30am 26.3 S 3 5 1008.1 - 0.0 - - - - - - -
17/05:00am 26.5 S 4 5 1007.8 - 0.0 - - - - - - -
17/04:30am 26.4 S 4 5 1007.5 - 0.0 - - - - - - -
17/04:00am 26.9 SSW 3 5 1007.5 - 0.0 - - - - - - -

Other Formats:

Comma delimited format used in spreadsheet applications
http://www.bom.gov.au/fwo/IDQ60701/IDQ60701.94254.axf

JavaScript Object Notation format (JSON) in row-major order
http://www.bom.gov.au/fwo/IDQ60701/IDQ60701.94254.json